La Clotilde, Argentina
Current Conditions -  °F | °C
As of 10:00 PM on Monday 24 Nov 2014 (Local Time) from SARE Reporting Station
Broken Clouds Broken Clouds  
Wind Chill: 84°   Ceiling: 2000
Heat Index: 90°   Visibility: 6mi
Dew Point: 72°   Wind: 5mph
Humidity: 66%   Direction: 70°ENE
Pressure: 29.71"   Gusts: NA
Location:  27.17°S, 60.64°W
Report Text: SARE 250100Z 07004KT 9999 BKN020 FEW050CBBKN100 BKN200 29/22 Q1006
Loading
Personal Weather Stations






























Interactive Weather Map New forecast layout! Learn more

10-Day Weather Forecast

Advertisements
Track Severe Weather on mobile